sensor_id;sensor_type;location;lat;lon;timestamp;temperature;humidity
54461;DHT22;40371;49.414;11.010;2023-03-13T00:01:24;7.70;99.90
54461;DHT22;40371;49.414;11.010;2023-03-13T00:03:50;7.70;99.90
54461;DHT22;40371;49.414;11.010;2023-03-13T00:06:16;7.80;99.90
54461;DHT22;40371;49.414;11.010;2023-03-13T00:08:42;7.70;99.90
54461;DHT22;40371;49.414;11.010;2023-03-13T00:11:10;7.70;99.90
54461;DHT22;40371;49.414;11.010;2023-03-13T00:13:36;7.60;99.90
54461;DHT22;40371;49.414;11.010;2023-03-13T00:16:04;7.50;99.90
54461;DHT22;40371;49.414;11.010;2023-03-13T00:18:30;7.50;99.90
54461;DHT22;40371;49.414;11.010;2023-03-13T00:21:00;7.40;99.90
54461;DHT22;40371;49.414;11.010;2023-03-13T00:23:27;7.40;99.90
54461;DHT22;40371;49.414;11.010;2023-03-13T00:25:57;7.40;99.90
54461;DHT22;40371;49.414;11.010;2023-03-13T00:28:23;7.40;99.90
54461;DHT22;40371;49.414;11.010;2023-03-13T00:30:49;7.50;99.90
54461;DHT22;40371;49.414;11.010;2023-03-13T00:33:14;7.50;99.90
54461;DHT22;40371;49.414;11.010;2023-03-13T00:35:40;7.60;99.90
54461;DHT22;40371;49.414;11.010;2023-03-13T00:38:06;7.60;99.90
54461;DHT22;40371;49.414;11.010;2023-03-13T00:40:31;7.60;99.90
54461;DHT22;40371;49.414;11.010;2023-03-13T00:42:57;7.60;99.90
54461;DHT22;40371;49.414;11.010;2023-03-13T00:45:22;7.70;99.90
54461;DHT22;40371;49.414;11.010;2023-03-13T00:47:48;7.60;99.90
54461;DHT22;40371;49.414;11.010;2023-03-13T00:50:14;7.60;99.90
54461;DHT22;40371;49.414;11.010;2023-03-13T00:52:40;7.60;99.90
54461;DHT22;40371;49.414;11.010;2023-03-13T00:55:07;7.70;99.90
54461;DHT22;40371;49.414;11.010;2023-03-13T00:57:33;7.70;99.90
54461;DHT22;40371;49.414;11.010;2023-03-13T01:00:03;7.70;99.90
54461;DHT22;40371;49.414;11.010;2023-03-13T01:02:30;7.70;99.90
54461;DHT22;40371;49.414;11.010;2023-03-13T01:04:56;7.80;99.90
54461;DHT22;40371;49.414;11.010;2023-03-13T01:07:23;7.80;99.90
54461;DHT22;40371;49.414;11.010;2023-03-13T01:09:48;7.80;99.90
54461;DHT22;40371;49.414;11.010;2023-03-13T01:12:14;7.80;99.90
54461;DHT22;40371;49.414;11.010;2023-03-13T01:14:39;7.80;99.90
54461;DHT22;40371;49.414;11.010;2023-03-13T01:17:05;7.80;99.90
54461;DHT22;40371;49.414;11.010;2023-03-13T01:19:30;7.80;99.90
54461;DHT22;40371;49.414;11.010;2023-03-13T01:21:56;7.80;99.90
54461;DHT22;40371;49.414;11.010;2023-03-13T01:24:23;7.80;99.90
54461;DHT22;40371;49.414;11.010;2023-03-13T01:26:49;7.80;99.90
54461;DHT22;40371;49.414;11.010;2023-03-13T01:29:15;7.80;99.90
54461;DHT22;40371;49.414;11.010;2023-03-13T01:31:40;7.70;99.90
54461;DHT22;40371;49.414;11.010;2023-03-13T01:34:06;7.70;99.90
54461;DHT22;40371;49.414;11.010;2023-03-13T01:36:34;7.70;99.90
54461;DHT22;40371;49.414;11.010;2023-03-13T01:39:00;7.70;99.90
54461;DHT22;40371;49.414;11.010;2023-03-13T01:41:28;7.80;99.90
54461;DHT22;40371;49.414;11.010;2023-03-13T01:43:53;7.70;99.90
54461;DHT22;40371;49.414;11.010;2023-03-13T01:46:29;7.70;99.90
54461;DHT22;40371;49.414;11.010;2023-03-13T01:49:10;7.60;99.90
54461;DHT22;40371;49.414;11.010;2023-03-13T01:52:00;7.60;99.90
54461;DHT22;40371;49.414;11.010;2023-03-13T01:54:32;7.60;99.90
54461;DHT22;40371;49.414;11.010;2023-03-13T01:59:36;7.60;99.90
54461;DHT22;40371;49.414;11.010;2023-03-13T02:02:04;7.60;99.90
54461;DHT22;40371;49.414;11.010;2023-03-13T02:04:35;7.50;99.90
54461;DHT22;40371;49.414;11.010;2023-03-13T02:07:09;7.50;99.90
54461;DHT22;40371;49.414;11.010;2023-03-13T02:09:41;7.60;99.90
54461;DHT22;40371;49.414;11.010;2023-03-13T02:12:14;7.60;99.90
54461;DHT22;40371;49.414;11.010;2023-03-13T02:14:44;7.60;99.90
54461;DHT22;40371;49.414;11.010;2023-03-13T02:17:12;7.70;99.90
54461;DHT22;40371;49.414;11.010;2023-03-13T02:19:44;7.60;99.90
54461;DHT22;40371;49.414;11.010;2023-03-13T02:28:00;7.80;99.90
54461;DHT22;40371;49.414;11.010;2023-03-13T02:30:28;7.80;99.90
54461;DHT22;40371;49.414;11.010;2023-03-13T02:32:54;7.80;99.90
54461;DHT22;40371;49.414;11.010;2023-03-13T02:35:21;7.80;99.90
54461;DHT22;40371;49.414;11.010;2023-03-13T02:37:50;7.90;99.90
54461;DHT22;40371;49.414;11.010;2023-03-13T02:40:43;7.90;99.90
54461;DHT22;40371;49.414;11.010;2023-03-13T02:43:28;7.90;99.90
54461;DHT22;40371;49.414;11.010;2023-03-13T02:46:13;7.80;99.90
54461;DHT22;40371;49.414;11.010;2023-03-13T02:48:48;7.80;99.90
54461;DHT22;40371;49.414;11.010;2023-03-13T02:51:22;7.80;99.90
54461;DHT22;40371;49.414;11.010;2023-03-13T02:53:50;7.80;99.90
54461;DHT22;40371;49.414;11.010;2023-03-13T02:56:19;7.80;99.90
54461;DHT22;40371;49.414;11.010;2023-03-13T02:58:47;7.70;99.90
54461;DHT22;40371;49.414;11.010;2023-03-13T03:01:12;7.70;99.90
54461;DHT22;40371;49.414;11.010;2023-03-13T03:03:40;7.60;99.90
54461;DHT22;40371;49.414;11.010;2023-03-13T03:06:06;7.60;99.90
54461;DHT22;40371;49.414;11.010;2023-03-13T03:08:33;7.60;99.90
54461;DHT22;40371;49.414;11.010;2023-03-13T03:10:59;7.50;99.90
54461;DHT22;40371;49.414;11.010;2023-03-13T03:13:26;7.50;99.90
54461;DHT22;40371;49.414;11.010;2023-03-13T03:15:52;7.50;99.90
54461;DHT22;40371;49.414;11.010;2023-03-13T03:18:17;7.50;99.90
54461;DHT22;40371;49.414;11.010;2023-03-13T03:20:43;7.50;99.90
54461;DHT22;40371;49.414;11.010;2023-03-13T03:23:10;7.50;99.90
54461;DHT22;40371;49.414;11.010;2023-03-13T03:25:36;7.50;99.90
54461;DHT22;40371;49.414;11.010;2023-03-13T03:28:02;7.50;99.90
54461;DHT22;40371;49.414;11.010;2023-03-13T03:30:27;7.50;99.90
54461;DHT22;40371;49.414;11.010;2023-03-13T03:32:53;7.50;99.90
54461;DHT22;40371;49.414;11.010;2023-03-13T03:35:21;7.50;99.90
54461;DHT22;40371;49.414;11.010;2023-03-13T03:37:46;7.60;99.90
54461;DHT22;40371;49.414;11.010;2023-03-13T03:40:12;7.60;99.90
54461;DHT22;40371;49.414;11.010;2023-03-13T03:42:38;7.60;99.90
54461;DHT22;40371;49.414;11.010;2023-03-13T03:45:04;7.70;99.90
54461;DHT22;40371;49.414;11.010;2023-03-13T03:47:29;7.70;99.90
54461;DHT22;40371;49.414;11.010;2023-03-13T03:49:55;7.70;99.90
54461;DHT22;40371;49.414;11.010;2023-03-13T03:52:21;7.70;99.90
54461;DHT22;40371;49.414;11.010;2023-03-13T03:54:46;7.70;99.90
54461;DHT22;40371;49.414;11.010;2023-03-13T03:57:13;7.70;99.90
54461;DHT22;40371;49.414;11.010;2023-03-13T03:59:42;7.70;99.90
54461;DHT22;40371;49.414;11.010;2023-03-13T04:02:08;7.80;99.90
54461;DHT22;40371;49.414;11.010;2023-03-13T04:04:34;7.80;99.90
54461;DHT22;40371;49.414;11.010;2023-03-13T04:07:07;7.80;99.90
54461;DHT22;40371;49.414;11.010;2023-03-13T04:09:33;7.80;99.90
54461;DHT22;40371;49.414;11.010;2023-03-13T04:12:01;7.80;99.90
54461;DHT22;40371;49.414;11.010;2023-03-13T04:14:28;7.80;99.90
54461;DHT22;40371;49.414;11.010;2023-03-13T04:16:54;7.80;99.90
54461;DHT22;40371;49.414;11.010;2023-03-13T04:19:19;7.80;99.90
54461;DHT22;40371;49.414;11.010;2023-03-13T04:21:45;7.80;99.90
54461;DHT22;40371;49.414;11.010;2023-03-13T04:24:14;7.90;99.90
54461;DHT22;40371;49.414;11.010;2023-03-13T04:26:41;7.90;99.90
54461;DHT22;40371;49.414;11.010;2023-03-13T04:29:07;7.90;99.90
54461;DHT22;40371;49.414;11.010;2023-03-13T04:32:09;7.90;99.90
54461;DHT22;40371;49.414;11.010;2023-03-13T04:34:46;7.90;99.90
54461;DHT22;40371;49.414;11.010;2023-03-13T04:37:25;7.90;99.90
54461;DHT22;40371;49.414;11.010;2023-03-13T04:40:01;8.00;99.90
54461;DHT22;40371;49.414;11.010;2023-03-13T04:42:58;8.00;99.90
54461;DHT22;40371;49.414;11.010;2023-03-13T04:45:39;8.00;99.90
54461;DHT22;40371;49.414;11.010;2023-03-13T04:48:15;8.00;99.90
54461;DHT22;40371;49.414;11.010;2023-03-13T04:50:55;7.90;99.90
54461;DHT22;40371;49.414;11.010;2023-03-13T04:53:39;7.90;99.90
54461;DHT22;40371;49.414;11.010;2023-03-13T04:56:23;8.00;99.90
54461;DHT22;40371;49.414;11.010;2023-03-13T04:59:09;7.90;99.90
54461;DHT22;40371;49.414;11.010;2023-03-13T05:01:54;7.80;99.90
54461;DHT22;40371;49.414;11.010;2023-03-13T05:04:35;7.90;99.90
54461;DHT22;40371;49.414;11.010;2023-03-13T05:07:17;8.00;99.90
54461;DHT22;40371;49.414;11.010;2023-03-13T05:10:01;8.00;99.90
54461;DHT22;40371;49.414;11.010;2023-03-13T05:12:40;8.00;99.90
54461;DHT22;40371;49.414;11.010;2023-03-13T05:15:28;8.00;99.90
54461;DHT22;40371;49.414;11.010;2023-03-13T05:18:14;8.10;99.90
54461;DHT22;40371;49.414;11.010;2023-03-13T05:20:59;8.20;99.90
54461;DHT22;40371;49.414;11.010;2023-03-13T05:23:50;8.20;99.90
54461;DHT22;40371;49.414;11.010;2023-03-13T05:26:27;8.10;99.90
54461;DHT22;40371;49.414;11.010;2023-03-13T05:29:04;8.20;99.90
54461;DHT22;40371;49.414;11.010;2023-03-13T05:31:38;8.30;99.90
54461;DHT22;40371;49.414;11.010;2023-03-13T05:34:27;8.40;99.90
54461;DHT22;40371;49.414;11.010;2023-03-13T05:36:55;8.40;99.90
54461;DHT22;40371;49.414;11.010;2023-03-13T05:39:39;8.40;99.90
54461;DHT22;40371;49.414;11.010;2023-03-13T05:42:19;8.50;99.90
54461;DHT22;40371;49.414;11.010;2023-03-13T05:45:10;8.50;99.90
54461;DHT22;40371;49.414;11.010;2023-03-13T05:48:02;8.60;99.90
54461;DHT22;40371;49.414;11.010;2023-03-13T05:50:58;8.60;99.90
54461;DHT22;40371;49.414;11.010;2023-03-13T05:53:44;8.70;99.90
54461;DHT22;40371;49.414;11.010;2023-03-13T05:56:28;8.80;99.90
54461;DHT22;40371;49.414;11.010;2023-03-13T05:59:23;8.70;99.90
54461;DHT22;40371;49.414;11.010;2023-03-13T06:01:59;8.70;99.90
54461;DHT22;40371;49.414;11.010;2023-03-13T06:04:36;8.70;99.90
54461;DHT22;40371;49.414;11.010;2023-03-13T06:07:02;8.70;99.90
54461;DHT22;40371;49.414;11.010;2023-03-13T06:09:27;8.70;99.90
54461;DHT22;40371;49.414;11.010;2023-03-13T06:11:54;8.80;99.90
54461;DHT22;40371;49.414;11.010;2023-03-13T06:14:20;8.90;99.90
54461;DHT22;40371;49.414;11.010;2023-03-13T06:17:08;8.80;99.90
54461;DHT22;40371;49.414;11.010;2023-03-13T06:19:34;8.90;99.90
54461;DHT22;40371;49.414;11.010;2023-03-13T06:21:59;8.90;99.90
54461;DHT22;40371;49.414;11.010;2023-03-13T06:24:25;8.90;99.90
54461;DHT22;40371;49.414;11.010;2023-03-13T06:26:50;8.90;99.90
54461;DHT22;40371;49.414;11.010;2023-03-13T06:29:16;8.80;99.90
54461;DHT22;40371;49.414;11.010;2023-03-13T06:31:42;8.90;99.90
54461;DHT22;40371;49.414;11.010;2023-03-13T06:34:10;9.00;99.90
54461;DHT22;40371;49.414;11.010;2023-03-13T06:36:36;9.00;99.90
54461;DHT22;40371;49.414;11.010;2023-03-13T06:39:02;9.10;99.90
54461;DHT22;40371;49.414;11.010;2023-03-13T06:41:28;9.10;99.90
54461;DHT22;40371;49.414;11.010;2023-03-13T06:43:53;9.10;99.90
54461;DHT22;40371;49.414;11.010;2023-03-13T06:46:21;9.10;99.90
54461;DHT22;40371;49.414;11.010;2023-03-13T06:48:48;9.10;99.90
54461;DHT22;40371;49.414;11.010;2023-03-13T06:51:16;9.20;99.90
54461;DHT22;40371;49.414;11.010;2023-03-13T06:53:42;9.20;99.90
54461;DHT22;40371;49.414;11.010;2023-03-13T06:56:08;9.20;99.90
54461;DHT22;40371;49.414;11.010;2023-03-13T06:58:34;9.20;99.90
54461;DHT22;40371;49.414;11.010;2023-03-13T07:01:08;9.30;99.90
54461;DHT22;40371;49.414;11.010;2023-03-13T07:03:35;9.30;99.90
54461;DHT22;40371;49.414;11.010;2023-03-13T07:06:01;9.40;99.90
54461;DHT22;40371;49.414;11.010;2023-03-13T07:08:27;9.30;99.90
54461;DHT22;40371;49.414;11.010;2023-03-13T07:10:57;9.40;99.90
54461;DHT22;40371;49.414;11.010;2023-03-13T07:13:23;9.40;99.90
54461;DHT22;40371;49.414;11.010;2023-03-13T07:15:48;9.40;99.90
54461;DHT22;40371;49.414;11.010;2023-03-13T07:18:14;9.40;99.90
54461;DHT22;40371;49.414;11.010;2023-03-13T07:20:40;9.50;99.90
54461;DHT22;40371;49.414;11.010;2023-03-13T07:23:05;9.50;99.90
54461;DHT22;40371;49.414;11.010;2023-03-13T07:25:31;9.70;99.90
54461;DHT22;40371;49.414;11.010;2023-03-13T07:27:56;9.70;99.90
54461;DHT22;40371;49.414;11.010;2023-03-13T07:30:22;9.70;99.90
54461;DHT22;40371;49.414;11.010;2023-03-13T07:32:48;9.80;99.90
54461;DHT22;40371;49.414;11.010;2023-03-13T07:35:14;9.80;99.90
54461;DHT22;40371;49.414;11.010;2023-03-13T07:37:40;9.90;99.90
54461;DHT22;40371;49.414;11.010;2023-03-13T07:40:06;9.90;99.90
54461;DHT22;40371;49.414;11.010;2023-03-13T07:42:33;10.00;99.90
54461;DHT22;40371;49.414;11.010;2023-03-13T07:44:59;10.10;99.90
54461;DHT22;40371;49.414;11.010;2023-03-13T07:47:24;10.20;99.90
54461;DHT22;40371;49.414;11.010;2023-03-13T07:49:50;10.30;99.90
54461;DHT22;40371;49.414;11.010;2023-03-13T07:52:16;10.30;99.90
54461;DHT22;40371;49.414;11.010;2023-03-13T07:54:42;10.40;99.90
54461;DHT22;40371;49.414;11.010;2023-03-13T07:57:07;10.50;99.90
54461;DHT22;40371;49.414;11.010;2023-03-13T07:59:33;10.50;99.90
54461;DHT22;40371;49.414;11.010;2023-03-13T08:01:59;10.60;99.90
54461;DHT22;40371;49.414;11.010;2023-03-13T08:04:24;10.70;99.90
54461;DHT22;40371;49.414;11.010;2023-03-13T08:06:50;10.80;99.90
54461;DHT22;40371;49.414;11.010;2023-03-13T08:09:16;10.80;99.90
54461;DHT22;40371;49.414;11.010;2023-03-13T08:11:42;10.90;99.90
54461;DHT22;40371;49.414;11.010;2023-03-13T08:14:09;11.10;99.90
54461;DHT22;40371;49.414;11.010;2023-03-13T08:16:34;11.20;99.90
54461;DHT22;40371;49.414;11.010;2023-03-13T08:19:02;11.20;99.90
54461;DHT22;40371;49.414;11.010;2023-03-13T08:21:33;11.30;99.90
54461;DHT22;40371;49.414;11.010;2023-03-13T08:24:02;11.40;99.90
54461;DHT22;40371;49.414;11.010;2023-03-13T08:26:30;11.40;99.90
54461;DHT22;40371;49.414;11.010;2023-03-13T08:29:05;11.40;99.90
54461;DHT22;40371;49.414;11.010;2023-03-13T08:31:37;11.40;99.90
54461;DHT22;40371;49.414;11.010;2023-03-13T08:34:03;11.50;99.90
54461;DHT22;40371;49.414;11.010;2023-03-13T08:36:31;11.50;99.90
54461;DHT22;40371;49.414;11.010;2023-03-13T08:38:59;11.50;99.90
54461;DHT22;40371;49.414;11.010;2023-03-13T08:41:27;11.60;99.90
54461;DHT22;40371;49.414;11.010;2023-03-13T08:43:54;11.70;99.90
54461;DHT22;40371;49.414;11.010;2023-03-13T08:46:21;11.70;99.90
54461;DHT22;40371;49.414;11.010;2023-03-13T08:48:51;11.80;99.90
54461;DHT22;40371;49.414;11.010;2023-03-13T08:51:18;11.80;99.90
54461;DHT22;40371;49.414;11.010;2023-03-13T08:53:44;11.80;99.90
54461;DHT22;40371;49.414;11.010;2023-03-13T08:56:12;11.80;99.90
54461;DHT22;40371;49.414;11.010;2023-03-13T08:58:39;11.90;99.90
54461;DHT22;40371;49.414;11.010;2023-03-13T09:01:10;11.90;99.90
54461;DHT22;40371;49.414;11.010;2023-03-13T09:03:36;12.00;99.90
54461;DHT22;40371;49.414;11.010;2023-03-13T09:06:02;11.90;99.90
54461;DHT22;40371;49.414;11.010;2023-03-13T09:08:29;12.10;99.90
54461;DHT22;40371;49.414;11.010;2023-03-13T09:11:00;12.30;99.90
54461;DHT22;40371;49.414;11.010;2023-03-13T09:13:27;12.80;99.90
54461;DHT22;40371;49.414;11.010;2023-03-13T09:15:58;13.10;99.90
54461;DHT22;40371;49.414;11.010;2023-03-13T09:18:25;13.20;99.90
54461;DHT22;40371;49.414;11.010;2023-03-13T09:20:50;13.40;99.90
54461;DHT22;40371;49.414;11.010;2023-03-13T09:23:17;13.60;99.90
54461;DHT22;40371;49.414;11.010;2023-03-13T09:25:42;13.80;99.90
54461;DHT22;40371;49.414;11.010;2023-03-13T09:28:08;13.90;99.90
54461;DHT22;40371;49.414;11.010;2023-03-13T09:30:34;13.80;99.90
54461;DHT22;40371;49.414;11.010;2023-03-13T09:32:59;13.80;99.90
54461;DHT22;40371;49.414;11.010;2023-03-13T09:35:25;13.80;99.90
54461;DHT22;40371;49.414;11.010;2023-03-13T09:37:51;14.00;99.90
54461;DHT22;40371;49.414;11.010;2023-03-13T09:40:20;14.30;99.90
54461;DHT22;40371;49.414;11.010;2023-03-13T09:42:52;14.50;99.90
54461;DHT22;40371;49.414;11.010;2023-03-13T09:45:35;14.10;99.90
54461;DHT22;40371;49.414;11.010;2023-03-13T09:48:30;14.30;99.90
54461;DHT22;40371;49.414;11.010;2023-03-13T09:51:07;15.90;99.90
54461;DHT22;40371;49.414;11.010;2023-03-13T09:56:21;18.90;99.90
54461;DHT22;40371;49.414;11.010;2023-03-13T09:58:54;18.50;99.90
54461;DHT22;40371;49.414;11.010;2023-03-13T10:01:27;19.00;99.90
54461;DHT22;40371;49.414;11.010;2023-03-13T10:06:52;15.80;99.90
54461;DHT22;40371;49.414;11.010;2023-03-13T10:09:29;15.60;99.90
54461;DHT22;40371;49.414;11.010;2023-03-13T10:12:05;15.10;99.90
54461;DHT22;40371;49.414;11.010;2023-03-13T10:14:44;15.00;99.90
54461;DHT22;40371;49.414;11.010;2023-03-13T10:17:33;14.90;99.90
54461;DHT22;40371;49.414;11.010;2023-03-13T10:22:35;14.80;99.90
54461;DHT22;40371;49.414;11.010;2023-03-13T10:25:23;14.70;99.90
54461;DHT22;40371;49.414;11.010;2023-03-13T10:27:51;14.70;99.90
54461;DHT22;40371;49.414;11.010;2023-03-13T10:30:27;14.70;99.90
54461;DHT22;40371;49.414;11.010;2023-03-13T10:32:58;14.50;99.90
54461;DHT22;40371;49.414;11.010;2023-03-13T10:35:31;14.60;99.90
54461;DHT22;40371;49.414;11.010;2023-03-13T10:38:24;14.50;99.90
54461;DHT22;40371;49.414;11.010;2023-03-13T10:41:34;14.40;99.90
54461;DHT22;40371;49.414;11.010;2023-03-13T10:44:05;14.30;99.90
54461;DHT22;40371;49.414;11.010;2023-03-13T10:46:34;14.30;99.90
54461;DHT22;40371;49.414;11.010;2023-03-13T10:49:02;14.20;99.90
54461;DHT22;40371;49.414;11.010;2023-03-13T10:51:37;14.20;99.90
54461;DHT22;40371;49.414;11.010;2023-03-13T10:54:24;14.20;99.90
54461;DHT22;40371;49.414;11.010;2023-03-13T10:56:51;14.20;99.90
54461;DHT22;40371;49.414;11.010;2023-03-13T10:59:25;14.30;99.90
54461;DHT22;40371;49.414;11.010;2023-03-13T11:01:53;14.30;99.90
54461;DHT22;40371;49.414;11.010;2023-03-13T11:04:34;14.30;99.90
54461;DHT22;40371;49.414;11.010;2023-03-13T11:07:14;14.20;99.90
54461;DHT22;40371;49.414;11.010;2023-03-13T11:09:40;14.20;99.90
54461;DHT22;40371;49.414;11.010;2023-03-13T11:12:19;14.20;99.90
54461;DHT22;40371;49.414;11.010;2023-03-13T11:14:45;14.20;99.90
54461;DHT22;40371;49.414;11.010;2023-03-13T11:17:23;14.30;99.90
54461;DHT22;40371;49.414;11.010;2023-03-13T11:20:07;14.20;99.90
54461;DHT22;40371;49.414;11.010;2023-03-13T11:25:44;14.50;99.90
54461;DHT22;40371;49.414;11.010;2023-03-13T11:28:27;14.90;99.90
54461;DHT22;40371;49.414;11.010;2023-03-13T11:36:34;16.50;99.90
54461;DHT22;40371;49.414;11.010;2023-03-13T11:59:12;15.40;99.90
54461;DHT22;40371;49.414;11.010;2023-03-13T12:01:39;15.30;99.90
54461;DHT22;40371;49.414;11.010;2023-03-13T12:04:30;15.20;99.90
54461;DHT22;40371;49.414;11.010;2023-03-13T12:07:02;15.30;99.90
54461;DHT22;40371;49.414;11.010;2023-03-13T12:09:43;15.30;99.90
54461;DHT22;40371;49.414;11.010;2023-03-13T12:12:18;15.30;99.90
54461;DHT22;40371;49.414;11.010;2023-03-13T12:15:06;15.40;99.90
54461;DHT22;40371;49.414;11.010;2023-03-13T12:17:39;15.50;99.90
54461;DHT22;40371;49.414;11.010;2023-03-13T12:20:27;15.50;99.90
54461;DHT22;40371;49.414;11.010;2023-03-13T12:25:54;15.80;99.90
54461;DHT22;40371;49.414;11.010;2023-03-13T12:34:34;16.80;99.90
54461;DHT22;40371;49.414;11.010;2023-03-13T12:39:42;16.90;99.90
54461;DHT22;40371;49.414;11.010;2023-03-13T12:42:20;17.20;99.90
54461;DHT22;40371;49.414;11.010;2023-03-13T12:44:47;17.30;99.90
54461;DHT22;40371;49.414;11.010;2023-03-13T12:47:24;17.70;99.90
54461;DHT22;40371;49.414;11.010;2023-03-13T12:58:12;18.30;99.90
54461;DHT22;40371;49.414;11.010;2023-03-13T13:00:43;18.10;99.90
54461;DHT22;40371;49.414;11.010;2023-03-13T13:06:15;18.00;99.90
54461;DHT22;40371;49.414;11.010;2023-03-13T13:08:50;18.00;99.90
54461;DHT22;40371;49.414;11.010;2023-03-13T13:17:14;18.30;99.90
54461;DHT22;40371;49.414;11.010;2023-03-13T13:35:34;18.40;99.90
54461;DHT22;40371;49.414;11.010;2023-03-13T13:43:24;18.30;99.90
54461;DHT22;40371;49.414;11.010;2023-03-13T13:46:03;18.20;99.90
54461;DHT22;40371;49.414;11.010;2023-03-13T13:48:37;18.30;99.90
54461;DHT22;40371;49.414;11.010;2023-03-13T13:53:56;18.90;99.90
54461;DHT22;40371;49.414;11.010;2023-03-13T13:56:33;18.90;99.90
54461;DHT22;40371;49.414;11.010;2023-03-13T13:59:21;18.70;99.90
54461;DHT22;40371;49.414;11.010;2023-03-13T14:02:10;18.90;99.90
54461;DHT22;40371;49.414;11.010;2023-03-13T14:04:42;18.60;99.90
54461;DHT22;40371;49.414;11.010;2023-03-13T14:07:16;18.50;99.90
54461;DHT22;40371;49.414;11.010;2023-03-13T14:09:52;18.30;99.90
54461;DHT22;40371;49.414;11.010;2023-03-13T14:12:34;18.20;99.90
54461;DHT22;40371;49.414;11.010;2023-03-13T14:17:47;17.90;99.90
54461;DHT22;40371;49.414;11.010;2023-03-13T14:22:48;17.90;99.90
54461;DHT22;40371;49.414;11.010;2023-03-13T14:25:14;18.10;99.90
54461;DHT22;40371;49.414;11.010;2023-03-13T14:27:44;18.00;99.90
54461;DHT22;40371;49.414;11.010;2023-03-13T14:30:11;17.90;99.90
54461;DHT22;40371;49.414;11.010;2023-03-13T14:32:38;17.80;99.90
54461;DHT22;40371;49.414;11.010;2023-03-13T14:35:06;17.80;99.90
54461;DHT22;40371;49.414;11.010;2023-03-13T14:37:37;17.90;99.90
54461;DHT22;40371;49.414;11.010;2023-03-13T14:43:02;18.10;99.90
54461;DHT22;40371;49.414;11.010;2023-03-13T14:45:30;17.90;99.90
54461;DHT22;40371;49.414;11.010;2023-03-13T14:48:18;18.00;99.90
54461;DHT22;40371;49.414;11.010;2023-03-13T14:50:45;18.00;99.90
54461;DHT22;40371;49.414;11.010;2023-03-13T14:53:15;18.10;99.90
54461;DHT22;40371;49.414;11.010;2023-03-13T14:55:41;18.00;99.90
54461;DHT22;40371;49.414;11.010;2023-03-13T15:00:46;18.40;99.90
54461;DHT22;40371;49.414;11.010;2023-03-13T15:05:46;18.40;99.90
54461;DHT22;40371;49.414;11.010;2023-03-13T15:08:16;18.40;99.90
54461;DHT22;40371;49.414;11.010;2023-03-13T15:10:43;18.20;99.90
54461;DHT22;40371;49.414;11.010;2023-03-13T15:15:46;18.30;99.90
54461;DHT22;40371;49.414;11.010;2023-03-13T15:18:31;18.40;99.90
54461;DHT22;40371;49.414;11.010;2023-03-13T15:23:41;18.50;99.90
54461;DHT22;40371;49.414;11.010;2023-03-13T15:26:07;18.60;99.90
54461;DHT22;40371;49.414;11.010;2023-03-13T15:28:33;18.50;99.90
54461;DHT22;40371;49.414;11.010;2023-03-13T15:30:59;18.50;99.90
54461;DHT22;40371;49.414;11.010;2023-03-13T15:33:27;18.50;99.90
54461;DHT22;40371;49.414;11.010;2023-03-13T15:35:53;18.40;99.90
54461;DHT22;40371;49.414;11.010;2023-03-13T15:38:24;18.40;99.90
54461;DHT22;40371;49.414;11.010;2023-03-13T15:40:51;18.40;99.90
54461;DHT22;40371;49.414;11.010;2023-03-13T15:43:17;18.50;99.90
54461;DHT22;40371;49.414;11.010;2023-03-13T15:45:44;18.60;99.90
54461;DHT22;40371;49.414;11.010;2023-03-13T15:48:14;18.60;99.90
54461;DHT22;40371;49.414;11.010;2023-03-13T15:50:41;18.60;99.90
54461;DHT22;40371;49.414;11.010;2023-03-13T15:53:25;18.50;99.90
54461;DHT22;40371;49.414;11.010;2023-03-13T15:55:52;18.50;99.90
54461;DHT22;40371;49.414;11.010;2023-03-13T15:58:19;18.40;99.90
54461;DHT22;40371;49.414;11.010;2023-03-13T16:00:45;18.40;99.90
54461;DHT22;40371;49.414;11.010;2023-03-13T16:03:20;18.40;99.90
54461;DHT22;40371;49.414;11.010;2023-03-13T16:05:47;18.30;99.90
54461;DHT22;40371;49.414;11.010;2023-03-13T16:08:18;18.20;99.90
54461;DHT22;40371;49.414;11.010;2023-03-13T16:10:44;18.20;99.90
54461;DHT22;40371;49.414;11.010;2023-03-13T16:13:10;18.10;99.90
54461;DHT22;40371;49.414;11.010;2023-03-13T16:15:37;18.00;99.90
54461;DHT22;40371;49.414;11.010;2023-03-13T16:18:04;18.00;99.90
54461;DHT22;40371;49.414;11.010;2023-03-13T16:20:31;17.90;99.90
54461;DHT22;40371;49.414;11.010;2023-03-13T16:22:57;17.80;99.90
54461;DHT22;40371;49.414;11.010;2023-03-13T16:25:23;17.70;99.90
54461;DHT22;40371;49.414;11.010;2023-03-13T16:27:49;17.70;99.90
54461;DHT22;40371;49.414;11.010;2023-03-13T16:30:25;17.60;99.90
54461;DHT22;40371;49.414;11.010;2023-03-13T16:32:51;17.60;99.90
54461;DHT22;40371;49.414;11.010;2023-03-13T16:35:16;17.50;99.90
54461;DHT22;40371;49.414;11.010;2023-03-13T16:37:42;17.50;99.90
54461;DHT22;40371;49.414;11.010;2023-03-13T16:42:42;17.30;99.90
54461;DHT22;40371;49.414;11.010;2023-03-13T16:45:08;17.30;99.90
54461;DHT22;40371;49.414;11.010;2023-03-13T16:47:33;17.30;99.90
54461;DHT22;40371;49.414;11.010;2023-03-13T16:52:55;17.10;99.90
54461;DHT22;40371;49.414;11.010;2023-03-13T16:55:22;17.10;99.90
54461;DHT22;40371;49.414;11.010;2023-03-13T16:57:56;17.00;99.90
54461;DHT22;40371;49.414;11.010;2023-03-13T17:00:23;17.00;99.90
54461;DHT22;40371;49.414;11.010;2023-03-13T17:02:49;16.80;99.90
54461;DHT22;40371;49.414;11.010;2023-03-13T17:05:15;16.80;99.90
54461;DHT22;40371;49.414;11.010;2023-03-13T17:07:46;16.70;99.90
54461;DHT22;40371;49.414;11.010;2023-03-13T17:10:27;16.50;99.90
54461;DHT22;40371;49.414;11.010;2023-03-13T17:12:53;16.50;99.90
54461;DHT22;40371;49.414;11.010;2023-03-13T17:15:19;16.40;99.90
54461;DHT22;40371;49.414;11.010;2023-03-13T17:17:47;16.30;99.90
54461;DHT22;40371;49.414;11.010;2023-03-13T17:20:19;16.20;99.90
54461;DHT22;40371;49.414;11.010;2023-03-13T17:22:45;16.10;99.90
54461;DHT22;40371;49.414;11.010;2023-03-13T17:25:11;16.00;99.90
54461;DHT22;40371;49.414;11.010;2023-03-13T17:27:37;16.00;99.90
54461;DHT22;40371;49.414;11.010;2023-03-13T17:30:29;15.80;99.90
54461;DHT22;40371;49.414;11.010;2023-03-13T17:32:55;15.80;99.90
54461;DHT22;40371;49.414;11.010;2023-03-13T17:35:22;15.70;99.90
54461;DHT22;40371;49.414;11.010;2023-03-13T17:37:48;15.70;99.90
54461;DHT22;40371;49.414;11.010;2023-03-13T17:40:16;15.60;99.90
54461;DHT22;40371;49.414;11.010;2023-03-13T17:42:42;15.60;99.90
54461;DHT22;40371;49.414;11.010;2023-03-13T17:45:08;15.60;99.90
54461;DHT22;40371;49.414;11.010;2023-03-13T17:47:34;15.60;99.90